PDT,Max TemperatureF,Mean TemperatureF,Min TemperatureF,Max Dew PointF,MeanDew PointF,Min DewpointF,Max Humidity, Mean Humidity, Min Humidity, Max Sea Level PressureIn, Mean Sea Level PressureIn, Min Sea Level PressureIn, Max VisibilityMiles, Mean VisibilityMiles, Min VisibilityMiles, Max Wind SpeedMPH, Mean Wind SpeedMPH, Max Gust SpeedMPH,PrecipitationIn, CloudCover, Events, WindDirDegrees
2013-9-1,84,73,62,64,62,61,100,65,45,29.91,29.86,29.79,10,10,10,15,7,22,0.00,0,,224
2013-9-2,84,72,59,64,62,59,100,67,48,30.17,29.91,29.86,10,10,10,14,5,20,0.00,3,,227
2013-9-3,84,74,64,64,63,61,100,74,45,29.99,29.97,29.95,10,10,10,14,8,17,0.00,5,,222
2013-9-4,73,68,64,63,63,63,94,78,69,30.04,30.03,30.01,10,10,10,13,7,20,0.00,5,,220
2013-9-5,69,66,64,64,63,63,100,89,78,30.00,29.99,29.95,10,9,6,14,7,20,0.00,8,Rain-Thunderstorm,223
2013-9-6,68,64,59,64,62,59,100,92,83,30.14,30.10,30.04,10,9,5,10,4,16,0.00,8,Rain,236
2013-9-7,80,68,57,64,61,57,100,77,51,30.10,30.03,29.96,10,10,10,10,5,,0.00,2,,46
2013-9-8,84,70,57,68,63,57,100,77,48,30.09,30.05,29.98,10,10,10,10,3,16,0.00,0,,172
2013-9-9,80,70,59,68,66,59,100,81,61,30.04,29.98,29.91,10,10,10,14,6,21,0.00,2,,227
2013-9-10,71,62,59,66,63,59,100,94,78,29.95,29.95,29.94,10,10,10,10,4,,0.00,1,,94
2013-9-11,96,81,66,63,61,61,83,52,30,29.94,29.90,29.85,10,10,10,17,7,24,0.00,0,,50
2013-9-12,82,81,80,68,67,66,62,60,58,29.91,29.89,29.87,10,10,10,14,12,20,0.00,0,,232
2013-9-13,77,70,62,66,65,63,100,86,69,29.96,29.91,29.83,10,10,10,18,10,25,0.00,2,,227
2013-9-14,82,72,62,68,66,63,100,81,61,29.87,29.80,29.70,10,10,7,10,4,,0.00,3,,288
2013-9-15,68,66,64,66,64,63,100,92,83,29.82,29.78,29.74,10,8,4,8,7,,0.00,8,,217
2013-9-16,71,64,60,63,60,59,94,82,69,30.00,29.97,29.94,10,10,7,8,6,,0.00,7,,235
2013-9-17,68,62,55,61,56,52,100,81,56,29.91,29.88,29.86,10,10,10,13,8,20,0.00,7,,231
2013-9-18,60,57,55,59,58,55,100,99,94,30.10,30.07,30.06,10,10,10,8,6,,0.00,7,,217
2013-9-19,80,63,46,52,49,46,100,54,32,30.02,29.92,29.82,10,10,10,17,8,25,0.00,2,,63
2013-9-20,77,62,48,59,54,48,100,64,39,29.75,29.69,29.66,10,10,10,10,5,18,0.00,7,,216
2013-9-21,64,55,55,59,57,55,100,94,83,29.75,29.73,29.72,10,10,10,7,2,,0.00,7,,160
2013-9-22,57,55,53,57,56,54,100,100,100,29.80,29.75,29.71,10,6,2,4,3,,0.00,8,Rain,94
2013-9-23,60,58,55,59,57,55,100,97,88,29.99,29.97,29.92,10,9,2,6,4,,0.00,8,Rain,221
2013-9-24,57,54,51,57,54,52,100,100,100,29.94,29.93,29.91,10,10,9,8,2,,0.00,8,Rain,189
2013-9-25,60,55,50,55,53,50,100,95,77,29.99,29.94,29.89,10,9,2,9,4,,0.00,7,Rain,225
2013-9-26,62,54,46,54,50,46,100,80,63,30.10,30.09,30.07,10,10,10,13,6,18,0.00,5,,226
2013-9-27,59,56,53,55,54,52,100,93,82,30.14,30.12,30.09,10,10,10,7,5,,0.00,8,,225
2013-9-28,62,58,53,63,59,54,100,100,100,29.76,29.66,29.51,10,8,2,6,3,,0.00,8,Rain,-1
2013-9-29,53,52,51,54,53,52,100,100,100,30.00,29.68,29.53,10,6,4,7,3,,0.00,8,Rain,152
2013-9-30,55,53,51,55,52,48,100,97,77,29.94,29.84,29.70,10,6,3,14,9,23,0.00,8,Rain,227